Burwash Airport
CYDB : now visible

Airfield :











YOU CAN JOIN US ON...

 
LOGIN :

Register | Disclaimer

   EN    FR    IT 

 









Legend :    VFR   Marginal VFR   IFR   Intensive IFR   Very Intensive IFR
Visi :
Ceiling :
>= 8 km
>= 3000ft
5 to 8 km
1000 to 3000 ft
1500m to 5 km
500 to 1000 ft
800 to 1500m
200 to 500 ft
< 800m
< 200 ft
Symbols :   Thunderstorms  Fog  Heavy snow  Heavy precipitations  Wind > 20 kt







- Airport Elevation : 2647 ft
- IATA code : YDB


CYDB - Burwash

CURRENT METAR :
  • 171100Z AUTO 30003KT 260V330 9SM CLR 05/04 A2963 RMK SLP060

EXPIRED METARs :
  • 171036Z AUTO 25004KT 9SM SCT060 BKN092 05/05 A2963 RMK SLP059
  • 171000Z AUTO VRB02KT 9SM -RA BKN049 OVC055 07/05 A2963 RMK SLP059
  • 170900Z AUTO 27005KT 9SM -RA OVC039 07/05 A2962 RMK SLP053 DENSITY ALT 2700FT
  • 170800Z AUTO 26003KT 9SM OVC042 08/04 A2961 RMK SLP049 DENSITY ALT 2700FT

TAF TAF CYDB
Valid from the 17 at 06:00 until the 17 at 18:00 UTC


170543Z 1706/1718 30007KT P6SM FEW030 BKN060
TEMPO 1710/1718 P6SM -SHRA BKN030 RMK FCST BASED ON AUTO OBS. NXT FCST BY 171200Z
No reported NOTAMs for that airfield.



MET'MAP, your aeronautical weather chart ! - Copyright ORBIFLY December 2007 - Disclaimer

ORBIFLY MET'MAP TEAM :

Programming & Development : Alexandra Zaïnal
Concept & Development : Baudouin d'Aumeries
Co-Development & Prog : Marc-Olivier Méhu
Technical & hardware support : Manuel Goepfert

Contact : metmap@orbifly.com




SOURCES & CREDITS :

   NOAA       Earth
Advisory